createdAt,value
2023-01-09T00:01:14.276Z,101361.19
2023-01-09T00:03:41.195Z,101351.59
2023-01-09T00:06:09.519Z,101359.00
2023-01-09T00:08:36.472Z,101359.81
2023-01-09T00:11:03.475Z,101358.63
2023-01-09T00:13:30.385Z,101354.56
2023-01-09T00:15:59.714Z,101354.59
2023-01-09T00:18:27.154Z,101355.91
2023-01-09T00:20:54.104Z,101354.59
2023-01-09T00:23:20.983Z,101362.09
2023-01-09T00:25:47.868Z,101347.28
2023-01-09T00:28:14.737Z,101357.72
2023-01-09T00:30:41.646Z,101347.59
2023-01-09T00:33:08.494Z,101363.84
2023-01-09T00:35:35.469Z,101347.06
2023-01-09T00:38:03.622Z,101352.88
2023-01-09T00:40:30.649Z,101352.91
2023-01-09T00:42:58.039Z,101351.53
2023-01-09T00:45:29.281Z,101339.94
2023-01-09T00:48:04.932Z,101339.94
2023-01-09T00:50:33.723Z,101338.28
2023-01-09T00:53:05.783Z,101338.75
2023-01-09T00:55:34.624Z,101338.22
2023-01-09T00:58:03.121Z,101335.19
2023-01-09T01:00:30.420Z,101327.00
2023-01-09T01:02:57.857Z,101335.00
2023-01-09T01:05:43.592Z,101328.38
2023-01-09T01:08:15.978Z,101313.28
2023-01-09T01:10:44.070Z,101313.31
2023-01-09T01:13:12.045Z,101311.16
2023-01-09T01:15:41.064Z,101302.38
2023-01-09T01:18:08.285Z,101304.28
2023-01-09T01:20:35.244Z,101303.50
2023-01-09T01:23:02.164Z,101291.69
2023-01-09T01:25:29.091Z,101296.34
2023-01-09T01:27:55.969Z,101283.94
2023-01-09T01:30:22.831Z,101279.84
2023-01-09T01:32:49.947Z,101280.72
2023-01-09T01:35:17.016Z,101272.75
2023-01-09T01:37:43.898Z,101275.81
2023-01-09T01:40:12.188Z,101271.66
2023-01-09T01:42:46.746Z,101261.75
2023-01-09T01:45:21.501Z,101265.63
2023-01-09T01:48:12.345Z,101254.63
2023-01-09T01:50:50.519Z,101246.13
2023-01-09T01:53:24.342Z,101243.38
2023-01-09T01:56:02.441Z,101247.25
2023-01-09T01:58:30.657Z,101256.00
2023-01-09T02:00:58.539Z,101251.00
2023-01-09T02:03:27.885Z,101245.47
2023-01-09T02:05:54.866Z,101234.47
2023-01-09T02:08:22.582Z,101242.66
2023-01-09T02:10:50.445Z,101234.09
2023-01-09T02:13:18.496Z,101229.97
2023-01-09T02:16:13.391Z,101227.69
2023-01-09T02:19:06.739Z,101219.47
2023-01-09T02:22:15.938Z,101223.00
2023-01-09T02:25:04.785Z,101226.81
2023-01-09T02:28:10.143Z,101227.28
2023-01-09T02:30:42.993Z,101229.41
2023-01-09T02:33:26.511Z,101217.69
2023-01-09T02:35:59.460Z,101230.03
2023-01-09T02:38:58.645Z,101226.59
2023-01-09T02:41:46.023Z,101209.84
2023-01-09T02:44:28.453Z,101215.13
2023-01-09T02:47:25.714Z,101217.91
2023-01-09T02:49:56.166Z,101225.13
2023-01-09T02:52:41.305Z,101213.28
2023-01-09T02:55:30.883Z,101206.13
2023-01-09T02:58:17.869Z,101211.34
2023-01-09T03:01:04.988Z,101218.41
2023-01-09T03:03:45.898Z,101212.38
2023-01-09T03:06:22.531Z,101215.03
2023-01-09T03:08:54.489Z,101208.41
2023-01-09T03:11:22.243Z,101221.03
2023-01-09T03:26:58.810Z,101214.19
2023-01-09T03:29:25.652Z,101215.75
2023-01-09T03:31:52.656Z,101224.16
2023-01-09T03:34:19.781Z,101220.03
2023-01-09T03:36:46.595Z,101206.50
2023-01-09T03:39:13.472Z,101213.34
2023-01-09T03:41:40.343Z,101216.97
2023-01-09T03:44:07.318Z,101217.28
2023-01-09T03:46:34.188Z,101212.78
2023-01-09T03:49:01.130Z,101212.56
2023-01-09T03:51:27.982Z,101223.84
2023-01-09T03:53:54.890Z,101208.25
2023-01-09T03:56:21.734Z,101221.16
2023-01-09T03:58:50.323Z,101203.34
2023-01-09T04:01:17.238Z,101212.41
2023-01-09T04:03:44.318Z,101215.66
2023-01-09T04:06:11.232Z,101215.16
2023-01-09T04:08:38.102Z,101228.34
2023-01-09T04:11:05.095Z,101225.59
2023-01-09T04:13:32.019Z,101219.59
2023-01-09T04:15:59.001Z,101217.38
2023-01-09T04:18:25.900Z,101212.44
2023-01-09T04:20:55.171Z,101222.94
2023-01-09T04:23:22.245Z,101217.97
2023-01-09T04:25:49.169Z,101219.91
2023-01-09T04:28:16.088Z,101215.25
2023-01-09T04:30:43.001Z,101217.16
2023-01-09T04:33:11.688Z,101210.28
2023-01-09T04:35:38.535Z,101211.13
2023-01-09T04:38:05.481Z,101200.31
2023-01-09T04:40:32.387Z,101191.94
2023-01-09T04:42:59.246Z,101197.03
2023-01-09T04:45:26.209Z,101186.63
2023-01-09T04:47:54.092Z,101187.97
2023-01-09T04:50:20.935Z,101193.03
2023-01-09T04:52:47.816Z,101193.13
2023-01-09T04:55:14.627Z,101197.72
2023-01-09T04:57:41.500Z,101202.66
2023-01-09T05:00:10.005Z,101202.13
2023-01-09T05:02:37.318Z,101192.28
2023-01-09T05:05:05.903Z,101198.81
2023-01-09T05:07:33.213Z,101211.22
2023-01-09T05:10:00.256Z,101213.22
2023-01-09T05:12:27.106Z,101202.97
2023-01-09T05:14:54.051Z,101209.31
2023-01-09T05:17:21.016Z,101201.84
2023-01-09T05:19:47.918Z,101208.44
2023-01-09T05:22:14.989Z,101198.53
2023-01-09T05:24:41.950Z,101199.13
2023-01-09T05:27:08.934Z,101195.59
2023-01-09T05:29:35.809Z,101191.25
2023-01-09T05:32:02.775Z,101196.44
2023-01-09T05:34:29.864Z,101200.63
2023-01-09T05:36:56.706Z,101200.13
2023-01-09T05:39:23.558Z,101190.22
2023-01-09T05:41:50.496Z,101191.31
2023-01-09T05:44:17.332Z,101197.38
2023-01-09T05:46:44.168Z,101197.25
2023-01-09T05:49:11.160Z,101193.00
2023-01-09T05:51:38.042Z,101194.88
2023-01-09T05:54:07.544Z,101201.72
2023-01-09T05:56:34.512Z,101196.41
2023-01-09T05:59:01.454Z,101204.72
2023-01-09T06:01:28.451Z,101205.19
2023-01-09T06:03:55.345Z,101206.19
2023-01-09T06:06:24.223Z,101206.72
2023-01-09T06:08:51.240Z,101201.56
2023-01-09T06:11:18.146Z,101205.84
2023-01-09T06:13:44.995Z,101206.84
2023-01-09T06:16:13.927Z,101205.72
2023-01-09T06:18:41.047Z,101219.06
2023-01-09T06:21:07.952Z,101218.72
2023-01-09T06:23:34.809Z,101215.81
2023-01-09T06:26:01.844Z,101202.41
2023-01-09T06:28:29.109Z,101208.09
2023-01-09T06:30:56.973Z,101202.56
2023-01-09T06:33:24.625Z,101200.69
2023-01-09T06:35:51.590Z,101205.75
2023-01-09T06:38:18.472Z,101212.41
2023-01-09T06:40:45.377Z,101222.22
2023-01-09T06:43:12.638Z,101216.56
2023-01-09T06:45:39.438Z,101205.06
2023-01-09T06:48:06.534Z,101207.75
2023-01-09T06:50:33.534Z,101203.38
2023-01-09T06:53:00.435Z,101202.22
2023-01-09T06:55:27.649Z,101205.25
2023-01-09T06:57:54.513Z,101200.56
2023-01-09T07:00:21.780Z,101215.94
2023-01-09T07:02:48.641Z,101221.09
2023-01-09T07:05:15.589Z,101208.34
2023-01-09T07:07:42.880Z,101198.56
2023-01-09T07:10:10.984Z,101197.53
2023-01-09T07:12:37.836Z,101197.88
2023-01-09T07:15:05.230Z,101189.00
2023-01-09T07:17:32.893Z,101191.03
2023-01-09T07:20:00.310Z,101191.97
2023-01-09T07:22:27.481Z,101193.91
2023-01-09T07:24:54.316Z,101204.28
2023-01-09T07:27:22.328Z,101198.72
2023-01-09T07:29:50.240Z,101203.63
2023-01-09T07:32:17.891Z,101193.19
2023-01-09T07:34:44.770Z,101192.03
2023-01-09T07:37:11.530Z,101196.72
2023-01-09T07:39:38.370Z,101188.66
2023-01-09T07:42:05.306Z,101196.56
2023-01-09T07:44:32.175Z,101201.09
2023-01-09T07:46:59.108Z,101192.66
2023-01-09T07:49:26.924Z,101200.13
2023-01-09T07:51:54.739Z,101190.78
2023-01-09T07:54:21.808Z,101194.88
2023-01-09T07:56:48.701Z,101198.91
2023-01-09T07:59:15.594Z,101195.09
2023-01-09T08:01:42.636Z,101188.75
2023-01-09T08:04:09.625Z,101197.31
2023-01-09T08:06:36.554Z,101188.41
2023-01-09T08:09:03.593Z,101185.66
2023-01-09T08:11:30.637Z,101195.53
2023-01-09T08:13:57.499Z,101187.75
2023-01-09T08:16:24.319Z,101184.81
2023-01-09T08:18:51.214Z,101182.16
2023-01-09T08:21:18.025Z,101197.78
2023-01-09T08:23:45.713Z,101193.47
2023-01-09T08:26:12.915Z,101187.63
2023-01-09T08:28:39.780Z,101180.59
2023-01-09T08:31:06.792Z,101187.88
2023-01-09T08:33:33.877Z,101188.03
2023-01-09T08:36:01.019Z,101180.47
2023-01-09T08:38:27.930Z,101178.31
2023-01-09T08:40:54.800Z,101180.69
2023-01-09T08:43:40.092Z,101186.78
2023-01-09T08:46:39.333Z,101181.81
2023-01-09T08:49:06.196Z,101167.41
2023-01-09T08:51:33.091Z,101155.97
2023-01-09T08:53:59.956Z,101164.34
2023-01-09T08:56:26.839Z,101159.44
2023-01-09T08:58:53.649Z,101162.31
2023-01-09T09:01:20.495Z,101159.03
2023-01-09T09:03:47.454Z,101149.72
2023-01-09T09:06:14.414Z,101147.47
2023-01-09T09:08:41.333Z,101141.53
2023-01-09T09:11:08.191Z,101148.00
2023-01-09T09:13:35.021Z,101128.38
2023-01-09T09:16:01.933Z,101118.97
2023-01-09T09:18:28.788Z,101132.16
2023-01-09T09:20:55.593Z,101113.63
2023-01-09T09:23:23.324Z,101107.44
2023-01-09T09:25:50.193Z,101111.91
2023-01-09T09:28:17.096Z,101116.91
2023-01-09T09:30:44.013Z,101105.50
2023-01-09T09:33:10.962Z,101105.44
2023-01-09T09:35:37.737Z,101109.16
2023-01-09T09:38:06.018Z,101100.97
2023-01-09T09:41:05.236Z,101099.69
2023-01-09T09:44:26.668Z,101091.13
2023-01-09T09:47:22.321Z,101105.22
2023-01-09T09:50:04.199Z,101093.47
2023-01-09T09:52:34.960Z,101095.94
2023-01-09T09:55:12.609Z,101086.41
2023-01-09T09:57:40.216Z,101085.00
2023-01-09T10:00:08.381Z,101082.69
2023-01-09T10:02:53.833Z,101086.81
2023-01-09T10:05:29.459Z,101078.50
2023-01-09T10:08:11.562Z,101080.22
2023-01-09T10:10:53.737Z,101060.06
2023-01-09T10:13:42.638Z,101056.38
2023-01-09T10:16:22.523Z,101059.31
2023-01-09T10:19:12.634Z,101048.94
2023-01-09T10:22:10.436Z,101049.13
2023-01-09T10:24:45.475Z,101050.03
2023-01-09T10:27:21.293Z,101051.59
2023-01-09T10:30:08.462Z,101037.44
2023-01-09T10:32:50.195Z,101044.88
2023-01-09T10:35:20.153Z,101036.53
2023-01-09T10:37:53.269Z,101031.25
2023-01-09T10:40:27.321Z,101024.81
2023-01-09T10:43:00.614Z,101029.25
2023-01-09T10:45:37.262Z,101020.94
2023-01-09T10:48:15.051Z,101019.75
2023-01-09T10:50:46.056Z,101011.66
2023-01-09T10:53:26.829Z,101002.41
2023-01-09T10:56:04.761Z,101003.94
2023-01-09T10:58:31.793Z,101012.59
2023-01-09T11:01:01.506Z,101006.94
2023-01-09T11:03:29.024Z,100992.63
2023-01-09T11:05:58.657Z,100989.41
2023-01-09T11:08:34.923Z,100990.22
2023-01-09T11:11:03.454Z,100989.72
2023-01-09T11:13:33.207Z,100994.91
2023-01-09T11:16:21.561Z,100995.34
2023-01-09T11:18:57.789Z,100990.84
2023-01-09T11:21:36.192Z,100987.03
2023-01-09T11:24:21.570Z,100994.53
2023-01-09T11:26:51.170Z,100979.88
2023-01-09T11:29:20.883Z,100989.50
2023-01-09T11:31:56.330Z,100973.63
2023-01-09T11:34:26.529Z,100978.56
2023-01-09T11:37:02.257Z,100980.72
2023-01-09T11:39:31.906Z,100974.00
2023-01-09T11:42:02.290Z,100963.19
2023-01-09T11:44:31.333Z,100970.03
2023-01-09T11:46:58.585Z,100963.78
2023-01-09T11:49:30.556Z,100965.56
2023-01-09T11:52:17.405Z,100958.28
2023-01-09T11:55:10.875Z,100956.56
2023-01-09T11:57:37.810Z,100960.22
2023-01-09T12:00:25.177Z,100960.84
2023-01-09T12:03:21.060Z,100957.75
2023-01-09T12:06:49.894Z,100956.28
2023-01-09T12:09:42.645Z,100958.09
2023-01-09T12:12:12.592Z,100959.06
2023-01-09T12:14:48.854Z,100953.84
2023-01-09T12:17:46.533Z,100950.03
2023-01-09T12:20:38.822Z,100947.22
2023-01-09T12:23:25.931Z,100936.81
2023-01-09T12:26:20.086Z,100933.91
2023-01-09T12:28:55.682Z,100945.34
2023-01-09T12:31:43.849Z,100935.59
2023-01-09T12:34:34.272Z,100942.22
2023-01-09T12:37:18.105Z,100943.41
2023-01-09T12:40:09.588Z,100923.34
2023-01-09T12:42:48.216Z,100913.78
2023-01-09T12:45:33.804Z,100922.00
2023-01-09T12:48:20.868Z,100920.00
2023-01-09T12:51:13.417Z,100921.00
2023-01-09T12:53:44.795Z,100918.47
2023-01-09T12:56:17.029Z,100912.13
2023-01-09T12:58:43.966Z,100911.09
2023-01-09T13:01:20.006Z,100910.53
2023-01-09T13:04:03.515Z,100928.22
2023-01-09T13:06:33.510Z,100912.47
2023-01-09T13:09:23.023Z,100914.75
2023-01-09T13:12:02.155Z,100914.94
2023-01-09T13:14:50.848Z,100921.69
2023-01-09T13:17:42.680Z,100926.81
2023-01-09T13:20:32.993Z,100925.09
2023-01-09T13:23:01.963Z,100921.88
2023-01-09T13:25:48.798Z,100920.44
2023-01-09T13:28:21.223Z,100919.63
2023-01-09T13:31:20.101Z,100909.63
2023-01-09T13:33:54.759Z,100930.97
2023-01-09T13:36:26.169Z,100920.06
2023-01-09T13:38:55.297Z,100927.59
2023-01-09T13:41:46.303Z,100923.19
2023-01-09T13:44:19.037Z,100925.03
2023-01-09T13:46:49.575Z,100929.38
2023-01-09T13:49:44.170Z,100926.63
2023-01-09T13:52:36.923Z,100917.13
2023-01-09T13:55:14.882Z,100921.31
2023-01-09T13:58:08.185Z,100916.94
2023-01-09T14:00:35.080Z,100910.59
2023-01-09T14:03:20.102Z,100912.84
2023-01-09T14:05:46.893Z,100904.91
2023-01-09T14:08:18.717Z,100901.03
2023-01-09T14:11:19.056Z,100897.75
2023-01-09T14:13:47.035Z,100891.13
2023-01-09T14:16:24.001Z,100902.53
2023-01-09T14:18:58.236Z,100892.94
2023-01-09T14:21:25.157Z,100891.91
2023-01-09T14:24:06.097Z,100890.06
2023-01-09T14:26:42.546Z,100892.81
2023-01-09T14:29:31.157Z,100892.56
2023-01-09T14:32:22.548Z,100877.56
2023-01-09T14:35:01.524Z,100874.28
2023-01-09T14:37:30.592Z,100871.34
2023-01-09T14:39:58.755Z,100857.38
2023-01-09T14:42:29.624Z,100867.56
2023-01-09T14:45:25.590Z,100868.44
2023-01-09T14:47:59.358Z,100855.91
2023-01-09T14:50:45.115Z,100853.09
2023-01-09T14:53:25.719Z,100858.13
2023-01-09T14:55:53.687Z,100846.63
2023-01-09T14:58:22.058Z,100851.03
2023-01-09T15:00:53.656Z,100848.56
2023-01-09T15:03:22.715Z,100838.66
2023-01-09T15:05:51.937Z,100847.75
2023-01-09T15:08:23.558Z,100850.28
2023-01-09T15:10:53.931Z,100832.97
2023-01-09T15:13:26.268Z,100834.38
2023-01-09T15:29:10.268Z,100821.03
2023-01-09T15:31:41.417Z,100807.97
2023-01-09T15:34:19.254Z,100809.75
2023-01-09T15:36:49.317Z,100802.78
2023-01-09T15:39:27.038Z,100807.13
2023-01-09T15:42:13.325Z,100802.38
2023-01-09T15:44:43.413Z,100800.44
2023-01-09T15:47:23.034Z,100801.25
2023-01-09T15:49:51.082Z,100792.47
2023-01-09T15:52:19.487Z,100797.69
2023-01-09T15:54:47.085Z,100794.66
2023-01-09T15:57:28.257Z,100784.78
2023-01-09T15:59:56.982Z,100793.84
2023-01-09T16:02:44.002Z,100788.63
2023-01-09T16:05:16.526Z,100782.38
2023-01-09T16:07:48.099Z,100790.06
2023-01-09T16:10:30.518Z,100779.56
2023-01-09T16:12:57.792Z,100765.81
2023-01-09T16:15:25.507Z,100779.84
2023-01-09T16:18:15.561Z,100791.16
2023-01-09T16:20:43.243Z,100783.22
2023-01-09T16:23:29.145Z,100771.59
2023-01-09T16:26:10.574Z,100781.00
2023-01-09T16:28:40.886Z,100768.84
2023-01-09T16:31:17.756Z,100775.69
2023-01-09T16:33:49.933Z,100773.78
2023-01-09T16:36:21.295Z,100778.56
2023-01-09T16:38:48.679Z,100771.97
2023-01-09T16:41:38.990Z,100776.03
2023-01-09T16:44:09.806Z,100768.41
2023-01-09T16:46:43.850Z,100769.09
2023-01-09T16:49:31.221Z,100764.97
2023-01-09T16:52:02.978Z,100764.22
2023-01-09T16:54:30.747Z,100765.47
2023-01-09T16:56:57.689Z,100765.16
2023-01-09T16:59:27.711Z,100764.63
2023-01-09T17:01:54.805Z,100762.22
2023-01-09T17:04:23.880Z,100775.50
2023-01-09T17:06:51.078Z,100769.09
2023-01-09T17:09:20.418Z,100776.53
2023-01-09T17:11:47.247Z,100774.06
2023-01-09T17:14:14.865Z,100769.38
2023-01-09T17:16:45.890Z,100766.91
2023-01-09T17:19:21.017Z,100789.94
2023-01-09T17:21:47.941Z,100765.72
2023-01-09T17:24:33.808Z,100759.81
2023-01-09T17:27:20.326Z,100758.19
2023-01-09T17:29:47.770Z,100754.31
2023-01-09T17:32:16.379Z,100753.28
2023-01-09T17:34:44.400Z,100756.94
2023-01-09T17:37:16.352Z,100743.19
2023-01-09T17:39:43.937Z,100744.09
2023-01-09T17:42:11.349Z,100753.66
2023-01-09T17:44:38.345Z,100752.84
2023-01-09T17:47:06.270Z,100749.28
2023-01-09T17:49:33.129Z,100749.59
2023-01-09T17:52:00.002Z,100753.66
2023-01-09T17:54:26.977Z,100765.19
2023-01-09T17:56:54.487Z,100765.19
2023-01-09T17:59:21.353Z,100747.66
2023-01-09T18:01:48.495Z,100757.75
2023-01-09T18:04:15.409Z,100752.84
2023-01-09T18:06:42.292Z,100743.88
2023-01-09T18:09:14.634Z,100750.63
2023-01-09T18:11:41.581Z,100747.94
2023-01-09T18:14:08.786Z,100741.84
2023-01-09T18:16:35.837Z,100748.16
2023-01-09T18:19:04.634Z,100743.78
2023-01-09T18:21:31.465Z,100745.63
2023-01-09T18:23:59.413Z,100742.97
2023-01-09T18:26:26.349Z,100726.38
2023-01-09T18:28:58.518Z,100734.34
2023-01-09T18:31:28.036Z,100722.22
2023-01-09T18:33:56.865Z,100721.41
2023-01-09T18:36:30.422Z,100716.22
2023-01-09T18:38:59.551Z,100714.81
2023-01-09T18:41:27.137Z,100707.34
2023-01-09T18:43:56.601Z,100706.25
2023-01-09T18:46:24.763Z,100702.38
2023-01-09T18:48:56.809Z,100699.91
2023-01-09T18:51:25.272Z,100701.84
2023-01-09T18:53:52.868Z,100695.16
2023-01-09T18:56:20.222Z,100680.59
2023-01-09T18:58:48.366Z,100696.25
2023-01-09T19:01:16.393Z,100680.88
2023-01-09T19:03:43.467Z,100677.84
2023-01-09T19:06:10.821Z,100679.97
2023-01-09T19:08:37.974Z,100666.22
2023-01-09T19:11:05.799Z,100670.41
2023-01-09T19:13:34.799Z,100661.06
2023-01-09T19:16:02.574Z,100662.69
2023-01-09T19:18:33.850Z,100654.13
2023-01-09T19:21:00.901Z,100655.84
2023-01-09T19:23:27.926Z,100653.63
2023-01-09T19:25:54.866Z,100653.31
2023-01-09T19:28:22.152Z,100654.13
2023-01-09T19:30:56.064Z,100649.84
2023-01-09T19:33:24.603Z,100647.72
2023-01-09T19:35:52.945Z,100649.16
2023-01-09T19:38:22.585Z,100648.81
2023-01-09T19:40:49.539Z,100652.09
2023-01-09T19:43:25.895Z,100649.56
2023-01-09T19:45:56.761Z,100646.81
2023-01-09T19:48:24.524Z,100640.19
2023-01-09T19:50:51.436Z,100631.75
2023-01-09T19:53:18.519Z,100621.25
2023-01-09T19:55:45.377Z,100627.97
2023-01-09T19:58:12.255Z,100607.28
2023-01-09T20:00:39.427Z,100608.41
2023-01-09T20:03:06.390Z,100622.47
2023-01-09T20:05:33.914Z,100615.34
2023-01-09T20:08:03.496Z,100616.66
2023-01-09T20:10:30.476Z,100626.34
2023-01-09T20:12:57.371Z,100618.59
2023-01-09T20:15:24.564Z,100602.22
2023-01-09T20:17:51.363Z,100610.75
2023-01-09T20:22:43.870Z,100616.53
2023-01-09T20:25:10.671Z,100619.81
2023-01-09T20:27:37.523Z,100612.06
2023-01-09T20:30:05.463Z,100614.91
2023-01-09T20:32:32.853Z,100609.13
2023-01-09T20:35:00.887Z,100620.13
2023-01-09T20:37:27.666Z,100616.34
2023-01-09T20:40:07.300Z,100600.06
2023-01-09T20:42:34.302Z,100606.97
2023-01-09T20:45:01.337Z,100608.00
2023-01-09T20:47:29.102Z,100602.28
2023-01-09T20:49:55.944Z,100590.81
2023-01-09T20:52:23.005Z,100584.50
2023-01-09T20:54:49.816Z,100590.56
2023-01-09T20:57:16.618Z,100585.59
2023-01-09T20:59:43.514Z,100587.53
2023-01-09T21:02:14.635Z,100589.25
2023-01-09T21:04:41.465Z,100583.75
2023-01-09T21:07:10.851Z,100579.69
2023-01-09T21:09:37.849Z,100580.00
2023-01-09T21:12:24.720Z,100568.19
2023-01-09T21:14:51.722Z,100573.19
2023-01-09T21:17:18.715Z,100573.19
2023-01-09T21:19:45.692Z,100576.50
2023-01-09T21:22:12.768Z,100566.13
2023-01-09T21:24:39.755Z,100572.94
2023-01-09T21:27:06.719Z,100571.84
2023-01-09T21:29:33.544Z,100566.88
2023-01-09T21:32:00.621Z,100579.69
2023-01-09T21:34:27.486Z,100568.47
2023-01-09T21:36:54.454Z,100574.50
2023-01-09T21:39:21.429Z,100573.88
2023-01-09T21:42:06.740Z,100571.75
2023-01-09T21:44:52.371Z,100566.66
2023-01-09T21:47:19.228Z,100565.25
2023-01-09T21:49:46.239Z,100557.31
2023-01-09T21:52:14.138Z,100563.31
2023-01-09T21:54:41.806Z,100554.56
2023-01-09T21:57:09.186Z,100552.63
2023-01-09T21:59:36.748Z,100559.97
2023-01-09T22:02:03.641Z,100556.09
2023-01-09T22:04:30.692Z,100556.19
2023-01-09T22:06:57.606Z,100540.28
2023-01-09T22:09:24.424Z,100541.09
2023-01-09T22:11:51.381Z,100530.44
2023-01-09T22:14:19.518Z,100540.81
2023-01-09T22:16:47.131Z,100537.44
2023-01-09T22:19:15.216Z,100536.44
2023-01-09T22:21:42.126Z,100531.84
2023-01-09T22:24:16.106Z,100531.56
2023-01-09T22:26:43.479Z,100531.25
2023-01-09T22:29:10.474Z,100528.28
2023-01-09T22:31:40.175Z,100533.19
2023-01-09T22:34:07.577Z,100531.16
2023-01-09T22:36:34.683Z,100528.06
2023-01-09T22:39:01.818Z,100533.47
2023-01-09T22:41:30.628Z,100524.94
2023-01-09T22:43:57.966Z,100528.28
2023-01-09T22:46:25.157Z,100528.06
2023-01-09T22:48:51.945Z,100517.72
2023-01-09T22:51:20.649Z,100512.72
2023-01-09T22:53:47.787Z,100504.59
2023-01-09T22:56:16.996Z,100503.97
2023-01-09T22:58:44.677Z,100499.72
2023-01-09T23:01:12.539Z,100497.34
2023-01-09T23:03:40.445Z,100487.78
2023-01-09T23:06:19.183Z,100480.16
2023-01-09T23:08:46.411Z,100485.63
2023-01-09T23:11:17.216Z,100479.13
2023-01-09T23:13:46.437Z,100488.72
2023-01-09T23:16:13.339Z,100485.75
2023-01-09T23:18:40.119Z,100483.84
2023-01-09T23:21:07.783Z,100483.91
2023-01-09T23:23:34.619Z,100476.06
2023-01-09T23:26:05.006Z,100478.44
2023-01-09T23:28:31.896Z,100469.47
2023-01-09T23:30:58.740Z,100472.41
2023-01-09T23:33:25.587Z,100462.66
2023-01-09T23:35:52.492Z,100462.34
2023-01-09T23:38:20.588Z,100469.69
2023-01-09T23:40:47.507Z,100459.28
2023-01-09T23:43:15.520Z,100465.91
2023-01-09T23:45:44.422Z,100469.75
2023-01-09T23:48:14.187Z,100467.50
2023-01-09T23:50:49.167Z,100470.59
2023-01-09T23:53:21.439Z,100474.44
2023-01-09T23:55:49.063Z,100475.47
2023-01-09T23:58:16.105Z,100471.97
